Portada
Imágenes satélite Pronóstico 15 díasClimaPredicción Marítima Ciclones Rayo AeropuertosFAQ Noticias Acerca
El tiempo : Europa África América del Norte América del Sur Asia Australia-Oceanía Otros
Idiomas Contacto

Chichén Itzá, México

latitud: 20-38-30N, longitud: 088-26-58W, altitud: 31 m


METAR: MMCT 272044Z 06010KT 8SM BKN015 34/22 A3000 RMK 8/100 HZY MSGTX MMMD
short-TAF: falta
long-TAF: falta

Hora: 23:11 (04:11 UTC)

Observación

El informe se hizo hace 7 horas y 27 minutos, a las 20:44 UTC  
Viento 10 kt del este-noreste
Temperatura 34°C
Humedad 50%
Presión 1016 hPa
Visibilidad 12.9 km
Cielo nuboso a una altura de 1500 ft

Cambiar las unidades
La información que se ofrece en estas páginas está sujeta a una cláusula de exención de responsabilidad
El tiempo : Europa África América del Norte América del Sur Asia Australia-Oceanía Otros
Imágenes satélite Pronóstico 15 díasClimaPredicción Marítima Ciclones Rayo AeropuertosFAQ Idiomas Contacto Noticias Acerca